Time;durP1;ratioP1;P1;durP2;ratioP2;P2;SDS_P1;SDS_P2;PMS_P1;PMS_P2;Temp;Humidity;BMP_temperature;BMP_pressure;BME280_temperature;BME280_humidity;BME280_pressure;Samples;Min_cycle;Max_cycle;Signal;HPM_P1;HPM_P2
2024/03/31 00:00:30;;;;;;;6.47;2.55;;;;;;;16.78;50.31;99824.75;5097346;28;20242;-62
2024/03/31 00:02:56;;;;;;;5.70;2.50;;;;;;;16.42;52.02;99831.13;5097962;28;20039;-63
2024/03/31 00:05:22;;;;;;;7.15;2.80;;;;;;;16.39;52.48;99825.34;5097214;28;20038;-64
2024/03/31 00:07:47;;;;;;;6.28;2.50;;;;;;;16.29;52.47;99836.38;5097030;28;20329;-62
2024/03/31 00:10:13;;;;;;;7.03;2.80;;;;;;;16.04;53.18;99828.00;5097788;28;20044;-62
2024/03/31 00:12:43;;;;;;;6.28;2.38;;;;;;;15.90;54.03;99834.28;5097754;28;20032;-61
2024/03/31 00:15:09;;;;;;;6.25;2.78;;;;;;;15.94;54.38;99841.72;5098013;28;20320;-62
2024/03/31 00:17:34;;;;;;;4.57;2.30;;;;;;;16.09;53.50;99840.78;5097202;28;20040;-62
2024/03/31 00:20:00;;;;;;;8.10;2.50;;;;;;;16.26;53.23;99828.75;5097726;28;20036;-61
2024/03/31 00:22:25;;;;;;;8.68;2.08;;;;;;;16.14;53.01;99827.66;5097278;28;20039;-62
2024/03/31 00:24:50;;;;;;;5.70;2.05;;;;;;;16.27;52.21;99833.91;5098081;28;20078;-64
2024/03/31 00:27:16;;;;;;;4.15;2.28;;;;;;;16.11;52.21;99833.41;5097389;28;20063;-62
2024/03/31 00:29:41;;;;;;;5.55;2.45;;;;;;;16.18;52.77;99831.59;5097843;28;20036;-61
2024/03/31 00:32:07;;;;;;;4.93;2.28;;;;;;;16.13;52.94;99834.84;5097209;28;20390;-62
2024/03/31 00:34:32;;;;;;;5.88;2.70;;;;;;;16.21;52.69;99832.03;5097881;28;20036;-62
2024/03/31 00:36:58;;;;;;;5.53;2.55;;;;;;;16.26;52.76;99829.59;5097185;28;20233;-62
2024/03/31 00:39:23;;;;;;;5.47;2.55;;;;;;;16.34;52.85;99833.13;5097563;28;20058;-62
2024/03/31 00:41:49;;;;;;;6.65;2.80;;;;;;;16.36;52.43;99834.59;5097478;28;20054;-62
2024/03/31 00:44:15;;;;;;;6.30;2.75;;;;;;;16.38;52.25;99832.53;5097867;28;20054;-62
2024/03/31 00:46:40;;;;;;;9.63;3.22;;;;;;;16.36;52.17;99836.44;5096904;28;20070;-64
2024/03/31 00:49:06;;;;;;;7.85;3.30;;;;;;;16.22;52.69;99832.84;5097570;28;20661;-64
2024/03/31 00:51:31;;;;;;;6.30;2.58;;;;;;;16.24;53.00;99836.97;5096423;28;20040;-62
2024/03/31 00:53:57;;;;;;;4.72;2.17;;;;;;;16.22;52.57;99832.84;5097491;28;20039;-61
2024/03/31 00:56:22;;;;;;;8.13;3.00;;;;;;;16.24;53.17;99825.47;5096832;28;20330;-62
2024/03/31 00:58:48;;;;;;;5.05;2.20;;;;;;;16.03;53.41;99825.53;5096789;28;20076;-62
2024/03/31 01:01:13;;;;;;;6.80;2.03;;;;;;;15.80;53.24;99826.59;5097105;28;20078;-63
2024/03/31 01:03:39;;;;;;;4.13;1.98;;;;;;;15.66;53.47;99824.03;5097620;28;20063;-61
2024/03/31 01:06:18;;;;;;;4.60;1.90;;;;;;;15.62;53.09;99831.59;5096398;28;20040;-63
2024/03/31 01:08:44;;;;;;;6.72;2.08;;;;;;;15.62;53.53;99827.09;5096953;28;20035;-61
2024/03/31 01:11:10;;;;;;;5.40;2.17;;;;;;;15.60;54.04;99828.25;5096494;28;20044;-63
2024/03/31 01:13:35;;;;;;;5.20;2.10;;;;;;;15.62;54.18;99826.25;5097342;28;20038;-62
2024/03/31 01:16:01;;;;;;;4.40;2.40;;;;;;;15.64;54.25;99837.56;5099175;28;20044;-64
2024/03/31 01:18:27;;;;;;;6.47;2.30;;;;;;;15.73;54.21;99835.59;5100941;28;20040;-62
2024/03/31 01:20:53;;;;;;;7.88;1.95;;;;;;;15.64;54.30;99843.72;5100884;28;20285;-63
2024/03/31 01:23:21;;;;;;;7.13;2.20;;;;;;;15.60;54.85;99849.63;5099379;28;20043;-62
2024/03/31 01:25:46;;;;;;;4.82;2.38;;;;;;;15.69;54.62;99845.00;5100675;28;20073;-62
2024/03/31 01:28:12;;;;;;;4.95;1.80;;;;;;;15.73;54.05;99843.59;5100749;28;20028;-65
2024/03/31 01:30:37;;;;;;;4.50;1.98;;;;;;;15.58;53.92;99839.13;5100636;28;20040;-62
2024/03/31 01:33:04;;;;;;;6.15;2.30;;;;;;;15.22;54.77;99841.00;5100642;28;20044;-62
2024/03/31 01:35:29;;;;;;;8.05;2.25;;;;;;;15.18;55.49;99842.41;5100013;28;20101;-63
2024/03/31 01:37:55;;;;;;;3.80;2.60;;;;;;;15.23;56.31;99848.00;5098819;28;20245;-62
2024/03/31 01:40:20;;;;;;;5.05;2.15;;;;;;;15.02;55.81;99844.28;5099540;28;20040;-62
2024/03/31 01:42:47;;;;;;;4.03;2.13;;;;;;;14.94;56.21;99843.56;5097749;28;20402;-61
2024/03/31 01:45:14;;;;;;;4.35;1.85;;;;;;;15.08;56.70;99844.56;5100161;28;20074;-62
2024/03/31 01:47:39;;;;;;;5.25;2.33;;;;;;;14.91;56.13;99846.63;5099430;28;20074;-62
2024/03/31 01:50:05;;;;;;;4.35;2.13;;;;;;;14.79;56.85;99848.94;5099902;28;20119;-62
2024/03/31 01:52:30;;;;;;;7.00;2.40;;;;;;;14.83;57.13;99841.41;5099272;28;20121;-62
2024/03/31 01:54:56;;;;;;;8.93;2.50;;;;;;;14.87;57.88;99843.50;5099877;28;20032;-62
2024/03/31 01:57:22;;;;;;;6.03;1.95;;;;;;;14.75;57.96;99846.84;5099789;28;20044;-64
2024/03/31 01:59:47;;;;;;;5.13;2.53;;;;;;;14.81;58.26;99848.75;5099981;28;20032;-64
2024/03/31 02:02:12;;;;;;;5.03;2.28;;;;;;;15.05;57.54;99840.41;5100362;28;20040;-62
2024/03/31 02:04:38;;;;;;;7.93;2.60;;;;;;;15.14;56.65;99833.97;5099040;28;20382;-62
2024/03/31 02:07:04;;;;;;;5.20;3.20;;;;;;;15.15;56.48;99835.59;5100044;28;20126;-62
2024/03/31 02:09:29;;;;;;;7.35;2.40;;;;;;;15.16;56.61;99844.44;5098160;28;20226;-62
2024/03/31 02:11:54;;;;;;;7.07;2.60;;;;;;;15.22;56.78;99851.69;5099920;28;20342;-62
2024/03/31 02:14:20;;;;;;;6.82;2.50;;;;;;;15.31;56.79;99847.88;5099537;28;20044;-63
2024/03/31 02:16:46;;;;;;;5.20;2.30;;;;;;;15.32;56.96;99854.88;5099403;28;20039;-63
2024/03/31 02:19:12;;;;;;;8.77;2.92;;;;;;;15.34;56.94;99858.16;5098874;28;20354;-65
2024/03/31 02:21:38;;;;;;;6.90;2.05;;;;;;;15.41;56.71;99864.41;5099081;28;20237;-64
2024/03/31 02:24:04;;;;;;;3.67;2.10;;;;;;;15.42;56.66;99866.03;5099652;28;20047;-62
2024/03/31 02:26:29;;;;;;;4.82;2.63;;;;;;;15.36;56.21;99860.66;5098224;28;20272;-63
2024/03/31 02:28:55;;;;;;;6.50;2.40;;;;;;;15.30;56.30;99865.72;5097943;28;20048;-62
2024/03/31 02:31:21;;;;;;;14.88;5.55;;;;;;;15.19;56.43;99866.22;5097856;28;20039;-62
2024/03/31 02:33:46;;;;;;;8.07;3.63;;;;;;;15.15;56.59;99874.78;5098874;28;20061;-63
2024/03/31 02:36:12;;;;;;;8.90;3.15;;;;;;;15.07;56.57;99882.91;5097884;28;20044;-62
2024/03/31 02:38:38;;;;;;;7.35;2.85;;;;;;;14.96;57.21;99890.38;5099767;28;20113;-65
2024/03/31 02:41:03;;;;;;;8.35;3.28;;;;;;;14.80;57.66;99881.75;5098233;28;20113;-62
2024/03/31 02:43:29;;;;;;;10.68;3.78;;;;;;;14.56;58.62;99889.00;5099744;28;20400;-62
2024/03/31 02:45:54;;;;;;;5.65;3.13;;;;;;;14.67;58.36;99896.56;5097663;28;20265;-62
2024/03/31 02:48:20;;;;;;;7.30;2.65;;;;;;;14.65;58.30;99885.25;5099625;28;20326;-62
2024/03/31 02:50:48;;;;;;;5.82;2.53;;;;;;;14.53;58.29;99886.72;5098663;28;20085;-61
2024/03/31 02:53:14;;;;;;;6.93;2.40;;;;;;;14.33;57.69;99882.91;5098704;28;20028;-62
2024/03/31 02:55:40;;;;;;;3.92;2.40;;;;;;;14.31;58.22;99879.59;5099067;28;20042;-62
2024/03/31 02:58:05;;;;;;;8.63;2.85;;;;;;;14.41;57.81;99889.97;5098681;28;20056;-62
2024/03/31 03:00:31;;;;;;;8.30;2.88;;;;;;;14.41;57.46;99892.66;5098583;28;20234;-62
2024/03/31 03:02:56;;;;;;;5.63;2.60;;;;;;;14.36;56.87;99896.69;5097980;28;20034;-63
2024/03/31 03:05:22;;;;;;;4.65;2.38;;;;;;;14.39;56.75;99896.31;5097040;28;20416;-61
2024/03/31 03:07:47;;;;;;;6.03;2.30;;;;;;;14.29;57.01;99903.75;5097790;28;20136;-64
2024/03/31 03:10:12;;;;;;;5.82;1.90;;;;;;;14.23;56.28;99899.16;5098183;28;20275;-65
2024/03/31 03:12:38;;;;;;;6.50;2.67;;;;;;;14.19;56.56;99902.38;5096535;28;20034;-63
2024/03/31 03:15:04;;;;;;;4.43;2.75;;;;;;;13.91;57.48;99896.78;5098468;28;20085;-62
2024/03/31 03:17:29;;;;;;;3.05;2.10;;;;;;;13.85;57.37;99903.66;5096523;28;20040;-63
2024/03/31 03:19:54;;;;;;;7.28;2.28;;;;;;;13.65;57.20;99900.66;5099250;28;20031;-62
2024/03/31 03:22:20;;;;;;;5.75;2.20;;;;;;;13.72;57.45;99906.09;5097091;28;20043;-62
2024/03/31 03:24:46;;;;;;;6.45;2.28;;;;;;;13.78;57.72;99901.91;5098618;28;20361;-63
2024/03/31 03:27:12;;;;;;;5.30;2.70;;;;;;;13.89;58.45;99899.63;5097330;28;20354;-62
2024/03/31 03:29:37;;;;;;;7.60;2.97;;;;;;;13.93;58.57;99902.78;5097655;28;20069;-64
2024/03/31 03:32:03;;;;;;;8.32;3.05;;;;;;;13.92;58.99;99907.25;5097449;28;20381;-63
2024/03/31 03:34:28;;;;;;;5.05;2.78;;;;;;;13.79;59.05;99912.38;5098029;28;20027;-63
2024/03/31 03:36:54;;;;;;;10.40;5.07;;;;;;;13.92;60.22;99907.25;5097958;28;20086;-62
2024/03/31 03:39:19;;;;;;;9.48;2.95;;;;;;;14.02;59.74;99907.84;5097568;28;20048;-62
2024/03/31 03:41:45;;;;;;;6.05;2.67;;;;;;;13.97;59.96;99901.41;5097518;28;20032;-63
2024/03/31 03:44:11;;;;;;;7.88;2.90;;;;;;;14.04;59.60;99908.50;5097288;28;20044;-62
2024/03/31 03:46:36;;;;;;;7.32;2.65;;;;;;;14.04;60.08;99907.66;5098325;28;20039;-65
2024/03/31 03:49:02;;;;;;;5.90;2.63;;;;;;;14.03;59.74;99909.50;5096901;28;20123;-64
2024/03/31 03:51:28;;;;;;;8.30;3.00;;;;;;;13.81;59.04;99905.03;5098188;28;20036;-62
2024/03/31 03:53:53;;;;;;;8.13;2.78;;;;;;;13.87;59.15;99916.78;5096025;28;20054;-62
2024/03/31 03:56:18;;;;;;;6.35;2.88;;;;;;;13.96;59.10;99916.53;5097723;28;20040;-62
2024/03/31 03:58:45;;;;;;;8.43;2.80;;;;;;;14.02;59.20;99923.81;5097452;28;20039;-63
2024/03/31 04:01:11;;;;;;;7.93;2.75;;;;;;;14.07;59.53;99924.09;5097185;28;20218;-62
2024/03/31 04:03:37;;;;;;;6.07;2.88;;;;;;;14.10;60.18;99930.06;5097403;28;20438;-62
2024/03/31 04:06:03;;;;;;;7.68;2.50;;;;;;;14.08;60.09;99932.91;5096274;28;20103;-62
2024/03/31 04:08:29;;;;;;;9.48;3.10;;;;;;;14.03;60.07;99936.13;5097398;28;20210;-63
2024/03/31 04:10:54;;;;;;;9.85;4.80;;;;;;;13.85;61.23;99943.59;5096597;28;20116;-62
2024/03/31 04:13:20;;;;;;;11.15;4.80;;;;;;;13.90;61.38;99935.06;5097400;28;20024;-62
2024/03/31 04:15:56;;;;;;;11.00;4.22;;;;;;;13.81;61.39;99941.47;5097954;28;20257;-62
2024/03/31 04:18:22;;;;;;;10.07;4.68;;;;;;;13.97;61.35;99933.34;5096940;28;20039;-64
2024/03/31 04:20:47;;;;;;;11.30;4.68;;;;;;;14.03;60.76;99927.31;5098197;28;20028;-64
2024/03/31 04:23:12;;;;;;;8.80;4.65;;;;;;;13.88;60.33;99921.94;5095760;28;20036;-63
2024/03/31 04:25:38;;;;;;;7.43;3.33;;;;;;;13.80;59.95;99935.31;5097429;28;20207;-62
2024/03/31 04:28:04;;;;;;;5.93;3.50;;;;;;;13.90;60.52;99940.41;5096050;28;20044;-62
2024/03/31 04:30:30;;;;;;;9.98;4.55;;;;;;;13.96;60.75;99934.34;5097378;28;20036;-63
2024/03/31 04:32:55;;;;;;;10.82;3.97;;;;;;;14.08;60.68;99956.88;5095276;28;20036;-62
2024/03/31 04:35:21;;;;;;;6.80;4.00;;;;;;;14.01;61.82;99961.28;5096726;28;20149;-65
2024/03/31 04:37:50;;;;;;;8.57;4.55;;;;;;;14.04;61.86;99972.38;5096189;28;20032;-64
2024/03/31 04:40:15;;;;;;;9.90;5.38;;;;;;;14.02;61.98;99971.75;5096375;28;20044;-62
2024/03/31 04:42:41;;;;;;;8.90;5.43;;;;;;;13.98;62.34;99966.94;5096060;28;20353;-61
2024/03/31 04:45:06;;;;;;;8.38;3.92;;;;;;;14.10;61.92;99970.00;5097105;28;20036;-63
2024/03/31 04:47:32;;;;;;;7.22;4.13;;;;;;;14.01;62.15;99971.91;5095794;28;20051;-62
2024/03/31 04:49:57;;;;;;;11.82;6.55;;;;;;;13.84;62.69;99975.72;5096238;28;20256;-62
2024/03/31 04:52:23;;;;;;;8.75;3.97;;;;;;;13.42;63.65;99982.25;5097078;28;20055;-62
2024/03/31 04:54:49;;;;;;;10.30;4.25;;;;;;;13.33;64.00;99992.13;5095253;28;20415;-62
2024/03/31 04:57:14;;;;;;;12.75;5.00;;;;;;;13.42;64.07;99990.25;5096877;28;20043;-65
2024/03/31 04:59:40;;;;;;;11.48;5.05;;;;;;;13.68;63.68;99990.78;5096297;28;20028;-64
2024/03/31 05:02:05;;;;;;;14.07;4.38;;;;;;;13.88;63.22;99985.81;5096789;28;20195;-62
2024/03/31 05:04:32;;;;;;;12.65;4.60;;;;;;;14.04;62.96;99985.69;5094461;28;20220;-62
2024/03/31 05:06:57;;;;;;;13.68;4.55;;;;;;;14.17;62.71;99986.94;5094639;28;20036;-62
2024/03/31 05:09:23;;;;;;;7.85;4.15;;;;;;;14.28;62.28;99989.16;5096187;28;20044;-62
2024/03/31 05:11:48;;;;;;;8.68;4.75;;;;;;;14.24;62.47;99980.72;5095233;28;20036;-62
2024/03/31 05:14:14;;;;;;;10.10;4.32;;;;;;;14.18;63.13;99978.75;5094872;28;20056;-62
2024/03/31 05:16:39;;;;;;;8.43;4.25;;;;;;;14.20;63.56;99987.41;5096516;28;20207;-62
2024/03/31 05:19:05;;;;;;;5.90;4.20;;;;;;;14.38;63.28;99985.25;5096807;28;20043;-62
2024/03/31 05:21:30;;;;;;;7.22;3.78;;;;;;;14.31;63.35;99981.66;5096012;28;20059;-63
2024/03/31 05:23:56;;;;;;;8.63;3.85;;;;;;;14.21;63.51;99988.22;5095170;28;20032;-63
2024/03/31 05:26:21;;;;;;;7.90;4.15;;;;;;;14.26;63.79;99994.69;5095564;28;20043;-62
2024/03/31 05:28:47;;;;;;;7.57;4.13;;;;;;;14.45;63.45;99997.88;5096921;28;20225;-65
2024/03/31 05:31:12;;;;;;;7.80;3.35;;;;;;;14.41;63.57;100000.03;5095351;28;20047;-62
2024/03/31 05:33:38;;;;;;;8.63;3.70;;;;;;;14.52;63.64;100006.78;5097569;28;20325;-62
2024/03/31 05:36:04;;;;;;;8.90;3.75;;;;;;;14.67;63.22;100000.50;5096004;28;20048;-62
2024/03/31 05:38:29;;;;;;;8.82;4.22;;;;;;;14.99;62.89;100010.00;5096121;28;20035;-63
2024/03/31 05:40:55;;;;;;;8.75;4.13;;;;;;;15.17;62.05;100009.63;5094155;28;20085;-65
2024/03/31 05:43:21;;;;;;;8.38;4.10;;;;;;;15.38;62.08;100000.84;5096192;28;20040;-64
2024/03/31 05:45:46;;;;;;;9.45;3.78;;;;;;;15.54;61.64;99997.97;5094944;28;20093;-63
2024/03/31 05:48:12;;;;;;;8.30;4.25;;;;;;;15.73;60.82;100007.28;5095440;28;20340;-63
2024/03/31 05:50:39;;;;;;;9.15;4.20;;;;;;;15.87;60.13;100017.06;5094856;28;20051;-62
2024/03/31 05:53:05;;;;;;;11.55;4.47;;;;;;;16.11;59.79;99996.34;5095927;28;20334;-63
2024/03/31 05:55:31;;;;;;;6.60;3.92;;;;;;;16.38;58.91;100008.09;5096367;28;20336;-63
2024/03/31 05:57:58;;;;;;;11.00;4.95;;;;;;;16.59;58.41;100013.41;5095080;28;20043;-63
2024/03/31 06:00:25;;;;;;;7.60;4.75;;;;;;;16.68;56.94;100017.63;5095614;28;20040;-63
2024/03/31 06:02:51;;;;;;;10.30;5.85;;;;;;;16.85;57.25;100016.31;5097395;28;20066;-62
2024/03/31 06:05:17;;;;;;;10.07;5.80;;;;;;;16.98;56.80;100017.41;5100479;28;20058;-62
2024/03/31 06:07:49;;;;;;;8.63;5.65;;;;;;;17.11;57.97;100020.16;5098157;28;20048;-63
2024/03/31 06:10:15;;;;;;;10.15;4.03;;;;;;;17.26;56.83;100025.38;5100415;28;20112;-63
2024/03/31 06:12:41;;;;;;;13.15;4.32;;;;;;;17.43;55.39;100032.88;5098712;28;20118;-62
2024/03/31 06:15:07;;;;;;;8.45;4.03;;;;;;;17.52;54.76;100038.88;5100198;28;20043;-63
2024/03/31 06:17:33;;;;;;;10.93;4.75;;;;;;;17.63;54.45;100027.59;5098365;28;20099;-65
2024/03/31 06:19:59;;;;;;;5.60;4.18;;;;;;;17.84;54.39;100021.34;5099446;28;20210;-65
2024/03/31 06:22:24;;;;;;;8.23;4.13;;;;;;;17.97;53.22;100025.91;5097579;28;20043;-63
2024/03/31 06:24:50;;;;;;;10.32;3.75;;;;;;;18.13;52.34;100028.19;5099053;28;20230;-63
2024/03/31 06:27:15;;;;;;;8.15;5.18;;;;;;;18.07;52.51;100026.34;5098834;28;20040;-64
2024/03/31 06:29:40;;;;;;;7.70;4.10;;;;;;;17.96;53.65;100026.94;5098896;28;20036;-63
2024/03/31 06:32:07;;;;;;;9.55;4.80;;;;;;;17.90;55.36;100038.47;5099532;28;20046;-62
2024/03/31 06:34:33;;;;;;;15.57;5.22;;;;;;;18.12;55.06;100035.41;5099259;28;20096;-62
2024/03/31 06:36:58;;;;;;;8.00;4.35;;;;;;;18.07;53.22;100034.38;5097423;28;20075;-63
2024/03/31 06:39:24;;;;;;;10.40;4.90;;;;;;;18.13;53.21;100038.91;5098953;28;20040;-62
2024/03/31 06:41:50;;;;;;;10.05;4.35;;;;;;;18.44;52.44;100035.66;5099851;28;20066;-62
2024/03/31 06:44:15;;;;;;;7.28;3.63;;;;;;;18.45;51.50;100032.75;5098070;28;20326;-62
2024/03/31 06:46:40;;;;;;;11.05;5.18;;;;;;;18.52;52.17;100032.75;5099557;28;20028;-63
2024/03/31 06:49:06;;;;;;;8.10;4.40;;;;;;;18.31;55.10;100016.88;5097336;28;20036;-63
2024/03/31 06:51:32;;;;;;;10.35;4.72;;;;;;;18.34;54.82;100014.59;5099002;28;20051;-62
2024/03/31 06:53:57;;;;;;;8.60;4.47;;;;;;;18.67;54.38;100005.75;5098501;28;20233;-63
2024/03/31 06:56:23;;;;;;;8.80;4.82;;;;;;;18.75;54.88;100010.94;5098283;28;20040;-65
2024/03/31 06:58:48;;;;;;;7.40;4.10;;;;;;;19.10;53.14;100014.16;5097275;28;20027;-65
2024/03/31 07:01:14;;;;;;;6.78;3.95;;;;;;;19.33;51.89;100016.34;5098018;28;20342;-63
2024/03/31 07:03:39;;;;;;;9.25;4.03;;;;;;;19.49;51.27;100021.25;5099176;28;20028;-63
2024/03/31 07:06:05;;;;;;;9.02;3.78;;;;;;;19.63;50.58;100019.34;5098010;28;20039;-62
2024/03/31 07:08:30;;;;;;;9.48;3.88;;;;;;;19.71;50.15;100027.16;5096537;28;20042;-63
2024/03/31 07:10:56;;;;;;;10.23;4.70;;;;;;;19.92;50.14;100018.81;5097807;28;20044;-63
2024/03/31 07:13:22;;;;;;;9.73;4.28;;;;;;;20.06;48.55;100017.69;5097863;28;20032;-63
2024/03/31 07:15:47;;;;;;;8.10;4.22;;;;;;;20.22;48.43;100012.81;5097886;28;20054;-63
2024/03/31 07:18:13;;;;;;;7.05;3.88;;;;;;;20.25;48.35;100020.47;5098544;28;20076;-62
2024/03/31 07:20:38;;;;;;;11.80;4.90;;;;;;;20.51;49.16;100027.53;5097147;28;20042;-62
2024/03/31 07:23:05;;;;;;;10.07;4.22;;;;;;;20.74;46.30;100022.34;5098672;28;20090;-63
2024/03/31 07:25:31;;;;;;;6.95;3.72;;;;;;;20.91;46.13;100023.44;5098354;28;20035;-62
2024/03/31 07:27:57;;;;;;;8.85;3.85;;;;;;;21.04;45.11;100027.88;5099577;28;20044;-63
2024/03/31 07:30:22;;;;;;;9.30;4.22;;;;;;;21.04;44.53;100022.50;5086018;28;20082;-62
2024/03/31 07:32:48;;;;;;;9.93;4.50;;;;;;;20.86;45.29;100015.22;5078296;28;20032;-63
2024/03/31 07:35:13;;;;;;;10.55;4.68;;;;;;;21.20;44.95;100016.50;5087578;28;20051;-65
2024/03/31 07:37:39;;;;;;;14.10;4.25;;;;;;;21.37;44.73;100014.06;5098981;28;20027;-63
2024/03/31 07:40:05;;;;;;;12.55;4.28;;;;;;;21.32;44.48;100024.69;5092748;28;20411;-63
2024/03/31 07:42:30;;;;;;;13.75;5.38;;;;;;;21.49;44.06;100022.22;5077501;28;20127;-63
2024/03/31 07:44:56;;;;;;;11.27;4.75;;;;;;;21.73;43.37;100020.44;5079124;28;20028;-63
2024/03/31 07:47:21;;;;;;;7.43;4.30;;;;;;;21.89;43.34;100023.34;5077597;28;20322;-63
2024/03/31 07:49:47;;;;;;;8.95;4.65;;;;;;;22.10;43.01;100015.81;5079032;28;20037;-62
2024/03/31 07:52:12;;;;;;;13.13;4.80;;;;;;;22.18;42.51;100016.31;5097808;28;20051;-63
2024/03/31 07:54:38;;;;;;;13.65;5.90;;;;;;;22.23;43.39;100021.03;5099379;28;20042;-62
2024/03/31 07:57:03;;;;;;;12.93;5.57;;;;;;;22.06;44.42;100017.34;5080596;28;20338;-63
2024/03/31 07:59:29;;;;;;;12.57;4.45;;;;;;;22.14;43.31;100012.44;5079132;28;20043;-62
2024/03/31 08:01:54;;;;;;;11.90;4.88;;;;;;;22.17;43.71;100013.84;5077561;28;20040;-62
2024/03/31 08:04:20;;;;;;;11.15;5.75;;;;;;;22.29;42.95;100012.00;5078266;28;20118;-63
2024/03/31 08:06:46;;;;;;;6.97;3.97;;;;;;;22.38;42.99;100010.59;5077829;28;20107;-63
2024/03/31 08:09:12;;;;;;;10.60;4.03;;;;;;;22.59;41.86;100006.53;5077965;28;20032;-61
2024/03/31 08:11:37;;;;;;;9.27;4.93;;;;;;;22.73;41.80;100009.81;5085580;28;20063;-63
2024/03/31 08:14:03;;;;;;;12.63;4.50;;;;;;;22.69;42.87;100005.94;5097580;28;20044;-64
2024/03/31 08:16:28;;;;;;;12.13;4.18;;;;;;;22.85;42.42;100010.66;5098361;28;20322;-63
2024/03/31 08:18:54;;;;;;;9.10;4.35;;;;;;;22.90;41.71;100000.81;5097978;28;20042;-62
2024/03/31 08:21:20;;;;;;;16.45;4.45;;;;;;;22.85;40.89;100007.97;5095728;28;20048;-62
2024/03/31 08:23:45;;;;;;;9.65;3.20;;;;;;;22.84;40.28;100001.72;5076543;28;20090;-62
2024/03/31 08:26:11;;;;;;;9.15;3.70;;;;;;;22.91;40.16;100009.75;5076854;28;20047;-62
2024/03/31 08:28:36;;;;;;;6.05;3.17;;;;;;;23.02;38.28;100000.81;5095928;28;20028;-62
2024/03/31 08:31:02;;;;;;;7.30;3.15;;;;;;;23.07;37.88;100003.63;5098371;28;20408;-64
2024/03/31 08:33:27;;;;;;;8.65;3.38;;;;;;;23.05;38.24;100000.34;5080765;28;20033;-64
2024/03/31 08:35:54;;;;;;;8.30;3.95;;;;;;;23.04;38.82;100001.38;5078379;28;20114;-62
2024/03/31 08:38:19;;;;;;;8.68;4.80;;;;;;;22.93;41.05;99999.53;5077406;28;20032;-62
2024/03/31 08:40:55;;;;;;;5.05;3.70;;;;;;;23.10;40.92;99997.75;5077389;28;20249;-62
2024/03/31 08:43:22;;;;;;;11.50;5.35;;;;;;;23.30;42.25;100000.03;5088949;28;20325;-62
2024/03/31 08:45:49;;;;;;;10.55;5.05;;;;;;;23.33;41.46;99998.75;5097366;28;20035;-62
2024/03/31 08:48:19;;;;;;;10.23;5.32;;;;;;;23.40;40.70;100004.84;5088440;28;20025;-63
2024/03/31 08:50:47;;;;;;;10.70;4.75;;;;;;;23.07;39.46;99995.50;5076435;28;20044;-61
2024/03/31 08:53:12;;;;;;;9.25;5.03;;;;;;;22.79;40.48;99989.97;5076907;28;20032;-62
2024/03/31 08:55:39;;;;;;;11.23;4.13;;;;;;;23.01;40.61;99984.84;5076019;28;20070;-67
2024/03/31 08:58:05;;;;;;;9.55;4.32;;;;;;;23.15;41.54;99980.81;5076933;28;20029;-62
2024/03/31 09:00:31;;;;;;;10.18;4.10;;;;;;;23.33;40.10;99977.13;5076843;28;20107;-62
2024/03/31 09:02:57;;;;;;;8.38;3.83;;;;;;;23.39;40.05;99976.16;5077183;28;20091;-62
2024/03/31 09:05:22;;;;;;;11.23;4.47;;;;;;;23.46;40.04;99974.16;5096353;28;20103;-62
2024/03/31 09:07:48;;;;;;;13.60;4.65;;;;;;;23.33;40.41;99972.53;5097366;28;20125;-63
2024/03/31 09:10:14;;;;;;;6.55;4.00;;;;;;;23.27;40.50;99969.97;5078377;28;20037;-62
2024/03/31 09:12:42;;;;;;;7.93;3.50;;;;;;;23.31;40.57;99965.75;5077220;28;20050;-62
2024/03/31 09:15:08;;;;;;;13.48;4.60;;;;;;;23.23;42.40;99966.94;5076265;28;20032;-63
2024/03/31 09:17:35;;;;;;;7.88;3.70;;;;;;;23.12;41.07;99959.69;5077082;28;20033;-63
2024/03/31 09:20:03;;;;;;;8.45;3.65;;;;;;;23.01;40.40;99957.84;5076964;28;20070;-63
2024/03/31 09:22:30;;;;;;;6.07;3.50;;;;;;;22.98;41.08;99953.72;5076957;28;20086;-62
2024/03/31 09:24:56;;;;;;;8.75;3.75;;;;;;;22.92;40.66;99958.19;5076732;28;20032;-62
2024/03/31 09:27:21;;;;;;;10.20;3.42;;;;;;;23.05;39.86;99946.31;5076421;28;20044;-63
2024/03/31 09:29:47;;;;;;;7.93;3.58;;;;;;;23.09;39.00;99946.66;5076790;28;20028;-62
2024/03/31 09:32:17;;;;;;;11.95;3.40;;;;;;;23.07;38.71;99954.19;5076188;28;20443;-63
2024/03/31 09:34:43;;;;;;;6.88;3.20;;;;;;;23.06;38.42;99939.03;5077438;28;20032;-64
2024/03/31 09:37:10;;;;;;;8.43;3.00;;;;;;;23.00;38.87;99940.00;5078076;28;20043;-61
2024/03/31 09:39:36;;;;;;;7.93;3.05;;;;;;;22.93;38.64;99942.81;5080944;28;20099;-62
2024/03/31 09:42:02;;;;;;;7.45;3.60;;;;;;;22.83;39.52;99943.41;5079977;28;20112;-62
2024/03/31 09:44:28;;;;;;;6.47;2.70;;;;;;;22.98;38.77;99942.09;5081046;28;20074;-62
2024/03/31 09:46:54;;;;;;;6.72;2.58;;;;;;;22.78;38.51;99937.84;5098057;28;20165;-62
2024/03/31 09:49:27;;;;;;;9.02;2.97;;;;;;;22.76;38.11;99945.38;5101282;28;20048;-62
2024/03/31 09:51:55;;;;;;;8.32;2.60;;;;;;;22.64;38.31;99931.06;5081841;28;20372;-63
2024/03/31 09:54:26;;;;;;;6.43;3.08;;;;;;;22.89;38.50;99938.97;5080958;28;20040;-64
2024/03/31 09:57:03;;;;;;;7.10;2.40;;;;;;;23.01;38.07;99931.66;5079625;28;20036;-66
2024/03/31 09:59:29;;;;;;;5.05;2.50;;;;;;;23.07;38.80;99937.97;5080753;28;20086;-64
2024/03/31 10:01:56;;;;;;;5.75;2.63;;;;;;;23.08;38.26;99940.44;5082209;28;20182;-64
2024/03/31 10:04:34;;;;;;;5.82;2.05;;;;;;;23.14;38.83;99931.38;5100066;28;20048;-63
2024/03/31 10:07:00;;;;;;;6.57;2.90;;;;;;;23.24;37.87;99933.47;5100587;28;20032;-64
2024/03/31 10:09:26;;;;;;;9.63;3.50;;;;;;;23.21;37.67;99934.75;5102299;28;20032;-64
2024/03/31 10:11:53;;;;;;;7.10;2.53;;;;;;;23.21;37.84;99929.34;5100978;28;20067;-64
2024/03/31 10:14:21;;;;;;;6.68;3.13;;;;;;;23.30;37.31;99926.28;5101187;28;20364;-63
2024/03/31 10:16:47;;;;;;;9.38;3.40;;;;;;;23.40;37.98;99918.38;5101122;28;20072;-64
2024/03/31 10:19:17;;;;;;;4.95;2.78;;;;;;;23.22;39.17;99917.50;5100648;28;20031;-62
2024/03/31 10:21:43;;;;;;;7.82;3.08;;;;;;;23.30;38.13;99920.88;5099975;28;20392;-64
2024/03/31 10:24:13;;;;;;;8.82;2.60;;;;;;;23.31;38.25;99919.81;5100656;28;20042;-63
2024/03/31 10:26:39;;;;;;;6.75;3.20;;;;;;;23.14;39.85;99908.94;5100467;28;20716;-64
2024/03/31 10:29:05;;;;;;;4.82;3.03;;;;;;;23.28;40.61;99909.50;5100217;28;20059;-61
2024/03/31 10:31:32;;;;;;;4.45;2.72;;;;;;;23.24;41.50;99906.44;5098880;28;20048;-62
2024/03/31 10:33:58;;;;;;;8.38;3.22;;;;;;;23.22;37.98;99895.06;5100952;28;20038;-63
2024/03/31 10:36:26;;;;;;;7.38;2.83;;;;;;;23.16;38.50;99887.91;5099436;28;20106;-62
2024/03/31 10:38:51;;;;;;;4.43;2.67;;;;;;;23.27;38.80;99875.44;5100388;28;20130;-64
2024/03/31 10:41:17;;;;;;;7.72;2.95;;;;;;;23.26;39.62;99869.19;5100450;28;20027;-63
2024/03/31 10:43:43;;;;;;;6.70;3.53;;;;;;;23.39;38.61;99868.91;5099870;28;20043;-63
2024/03/31 10:46:09;;;;;;;8.68;3.17;;;;;;;23.53;38.44;99877.53;5099463;28;20048;-65
2024/03/31 10:48:35;;;;;;;5.45;3.40;;;;;;;23.47;38.06;99868.50;5098343;28;20322;-64
2024/03/31 10:51:14;;;;;;;6.88;3.15;;;;;;;23.60;38.57;99872.81;5098463;28;20103;-64
2024/03/31 10:53:40;;;;;;;5.78;2.88;;;;;;;23.50;36.70;99861.78;5099247;28;20113;-63
2024/03/31 10:56:07;;;;;;;4.15;2.25;;;;;;;23.56;35.29;99875.19;5097587;28;20071;-65
2024/03/31 10:58:33;;;;;;;6.72;2.65;;;;;;;23.49;35.50;99865.56;5098868;28;20028;-68
2024/03/31 11:01:01;;;;;;;5.88;2.53;;;;;;;23.53;34.58;99872.94;5099250;28;20128;-66
2024/03/31 11:03:33;;;;;;;7.47;2.95;;;;;;;23.51;34.93;99852.63;5098917;28;20027;-62
2024/03/31 11:06:02;;;;;;;6.03;2.38;;;;;;;23.53;36.58;99855.91;5099090;28;20337;-63
2024/03/31 11:08:28;;;;;;;5.10;2.70;;;;;;;23.44;36.17;99852.78;5099090;28;20248;-62
2024/03/31 11:10:54;;;;;;;8.20;2.63;;;;;;;23.53;36.71;99845.91;5098306;28;20074;-62
2024/03/31 11:13:20;;;;;;;4.35;2.10;;;;;;;23.53;36.65;99847.78;5099282;28;20233;-64
2024/03/31 11:15:47;;;;;;;7.43;3.05;;;;;;;23.65;36.16;99839.66;5099247;28;20036;-64
2024/03/31 11:18:12;;;;;;;7.65;2.97;;;;;;;23.61;37.56;99838.50;5099718;28;20065;-63
2024/03/31 11:20:44;;;;;;;7.55;2.75;;;;;;;23.64;35.76;99843.41;5099546;28;20040;-63
2024/03/31 11:23:13;;;;;;;11.30;2.88;;;;;;;23.78;35.92;99847.44;5098436;28;20368;-63